Time;durP1;ratioP1;P1;durP2;ratioP2;P2;SDS_P1;SDS_P2;PMS_P1;PMS_P2;Temp;Humidity;BMP_temperature;BMP_pressure;BME280_temperature;BME280_humidity;BME280_pressure;Samples;Min_cycle;Max_cycle;Signal;HPM_P1;HPM_P2
2023/04/24 00:01:39;;;;;;;;;3.00;2.00;;;;;12.00;100.00;100427.06;5033833;28;45324;-74
2023/04/24 00:04:06;;;;;;;;;2.00;2.00;;;;;12.00;100.00;100428.81;5031898;28;45296;-74
2023/04/24 00:06:36;;;;;;;;;4.00;2.00;;;;;11.94;100.00;100435.00;5021367;28;46596;-73
2023/04/24 00:09:03;;;;;;;;;2.33;2.33;;;;;11.93;100.00;100433.25;5029683;28;45372;-74
2023/04/24 00:11:29;;;;;;;;;4.33;3.00;;;;;11.94;100.00;100447.34;4998815;28;45585;-74
2023/04/24 00:13:54;;;;;;;;;1.00;1.00;;;;;11.96;100.00;100449.09;5010063;28;45278;-74
2023/04/24 00:16:20;;;;;;;;;9.00;2.00;;;;;11.95;100.00;100439.41;5024290;28;46838;-74
2023/04/24 00:18:47;;;;;;;;;2.00;2.00;;;;;11.98;100.00;100449.09;5030769;28;45212;-74
2023/04/24 00:21:13;;;;;;;;;3.00;2.00;;;;;11.99;100.00;100450.88;5010270;28;45219;-74
2023/04/24 00:23:38;;;;;;;;;2.67;2.00;;;;;12.00;100.00;100437.63;5031766;28;45272;-74
2023/04/24 00:26:03;;;;;;;;;3.00;3.00;;;;;12.01;100.00;100442.03;5020091;28;58787;-73
2023/04/24 00:28:29;;;;;;;;;3.00;2.33;;;;;11.97;100.00;100445.56;5028196;28;45315;-74
2023/04/24 00:30:54;;;;;;;;;3.00;2.00;;;;;11.89;100.00;100447.34;5011881;28;45551;-74
2023/04/24 00:33:20;;;;;;;;;2.33;2.00;;;;;11.86;100.00;100450.00;5005489;28;45475;-74
2023/04/24 00:35:45;;;;;;;;;3.67;2.00;;;;;11.86;100.00;100459.69;5030232;28;45626;-74
2023/04/24 00:38:11;;;;;;;;;2.00;2.00;;;;;11.85;100.00;100473.81;5029448;28;58815;-74
2023/04/24 00:40:36;;;;;;;;;2.33;2.33;;;;;11.83;100.00;100475.59;4993157;28;45486;-74
2023/04/24 00:43:02;;;;;;;;;5.00;3.33;;;;;11.79;100.00;100475.53;5031185;28;45606;-74
2023/04/24 00:45:27;;;;;;;;;2.00;2.00;;;;;11.78;100.00;100479.06;5003778;28;46260;-74
2023/04/24 00:47:53;;;;;;;;;4.00;2.67;;;;;11.74;100.00;100473.78;5026347;28;45450;-74
2023/04/24 00:50:19;;;;;;;;;3.00;3.00;;;;;11.76;100.00;100483.44;5032607;28;45535;-74
2023/04/24 00:52:44;;;;;;;;;1.33;1.00;;;;;11.76;100.00;100483.44;5030197;28;45402;-74
2023/04/24 00:55:10;;;;;;;;;2.00;1.00;;;;;11.71;100.00;100489.63;5015778;28;46703;-74
2023/04/24 00:57:36;;;;;;;;;5.00;2.67;;;;;11.68;100.00;100487.00;5017998;28;45243;-74
2023/04/24 01:00:03;;;;;;;;;3.75;3.75;;;;;11.72;100.00;100491.41;5022100;28;45440;-74
2023/04/24 01:02:29;;;;;;;;;3.33;1.00;;;;;11.73;100.00;100496.69;5007993;28;45226;-74
2023/04/24 01:04:54;;;;;;;;;2.75;2.00;;;;;11.73;100.00;100498.47;5025392;28;45783;-74
2023/04/24 01:07:20;;;;;;;;;2.00;2.00;;;;;11.75;100.00;100509.91;5025282;28;45310;-74
2023/04/24 01:09:48;;;;;;;;;2.00;2.00;;;;;11.78;100.00;100496.72;5003006;28;45339;-74
2023/04/24 01:12:15;;;;;;;;;7.00;3.00;;;;;11.76;100.00;100494.03;5006495;28;45538;-73
2023/04/24 01:14:40;;;;;;;;;2.67;2.00;;;;;11.79;100.00;100496.69;5024446;28;45665;-73
2023/04/24 01:17:06;;;;;;;;;3.67;2.00;;;;;11.80;100.00;100501.09;5013454;28;45381;-75
2023/04/24 01:19:31;;;;;;;;;4.75;2.75;;;;;11.81;100.00;100488.75;5024462;28;51068;-74
2023/04/24 01:21:58;;;;;;;;;3.00;2.00;;;;;11.85;100.00;100497.63;5024211;28;45481;-74
2023/04/24 01:24:23;;;;;;;;;4.33;2.00;;;;;11.84;100.00;100488.81;5024488;28;46632;-74
2023/04/24 01:26:49;;;;;;;;;5.00;2.00;;;;;11.86;100.00;100499.38;5031014;28;48691;-74
2023/04/24 01:29:15;;;;;;;;;1.67;1.67;;;;;11.82;100.00;100490.53;5024277;28;45593;-74
2023/04/24 01:31:40;;;;;;;;;3.00;2.00;;;;;11.83;100.00;100494.09;5006435;28;45575;-74
2023/04/24 01:34:06;;;;;;;;;1.67;1.67;;;;;11.84;100.00;100495.84;5152683;22;51983;-74
2023/04/24 01:36:32;;;;;;;;;2.00;2.00;;;;;11.83;100.00;100494.09;5001270;28;45344;-74
2023/04/24 01:38:57;;;;;;;;;2.67;2.00;;;;;11.78;100.00;100494.94;5006678;28;45517;-74
2023/04/24 01:41:23;;;;;;;;;2.67;2.00;;;;;11.78;100.00;100496.72;5035563;28;45273;-74
2023/04/24 01:43:49;;;;;;;;;2.00;2.00;;;;;11.77;100.00;100498.47;5035178;28;46729;-74
2023/04/24 01:46:14;;;;;;;;;4.00;2.00;;;;;11.76;100.00;100499.31;5017319;28;46790;-73
2023/04/24 01:48:41;;;;;;;;;2.33;2.33;;;;;11.74;100.00;100503.75;5017410;28;45418;-74
2023/04/24 01:51:06;;;;;;;;;2.00;2.00;;;;;11.72;100.00;100494.94;5001631;28;45467;-74
2023/04/24 01:53:32;;;;;;;;;4.33;1.00;;;;;11.75;100.00;100509.91;5034792;28;51188;-73
2023/04/24 01:55:57;;;;;;;;;2.25;2.25;;;;;11.74;100.00;100509.03;5035870;28;52530;-74
2023/04/24 01:58:23;;;;;;;;;2.67;2.67;;;;;11.69;100.00;100507.28;5035767;28;45462;-74
2023/04/24 02:00:48;;;;;;;;;4.00;2.00;;;;;11.66;100.00;100516.06;5036050;28;45392;-74
2023/04/24 02:03:13;;;;;;;;;2.00;2.00;;;;;11.65;100.00;100510.78;5018149;28;46566;-74
2023/04/24 02:05:39;;;;;;;;;6.00;2.25;;;;;11.67;100.00;100514.31;5035366;28;45727;-73
2023/04/24 02:08:04;;;;;;;;;2.00;2.00;;;;;11.67;100.00;100519.63;5018069;28;45570;-74
2023/04/24 02:10:30;;;;;;;;;4.00;2.00;;;;;11.67;100.00;100525.78;5035877;28;45432;-74
2023/04/24 02:12:55;;;;;;;;;5.00;2.00;;;;;11.65;100.00;100519.59;5033807;28;59138;-74
2023/04/24 02:15:20;;;;;;;;;3.00;3.00;;;;;11.67;100.00;100524.91;5035628;28;45513;-73
2023/04/24 02:17:46;;;;;;;;;1.33;1.33;;;;;11.71;100.00;100526.66;5034919;28;47597;-74
2023/04/24 02:20:12;;;;;;;;;7.00;2.75;;;;;11.67;100.00;100527.56;5017994;28;45551;-75
2023/04/24 02:22:37;;;;;;;;;3.25;2.50;;;;;11.67;100.00;100531.06;5035066;28;45715;-74
2023/04/24 02:25:03;;;;;;;;;2.00;2.00;;;;;11.70;100.00;100535.47;5035467;28;45196;-74
2023/04/24 02:27:28;;;;;;;;;3.00;3.00;;;;;11.70;100.00;100540.75;5037729;28;45147;-74
2023/04/24 02:29:55;;;;;;;;;2.00;2.00;;;;;11.64;100.00;100533.69;5019125;28;45504;-74
2023/04/24 02:32:20;;;;;;;;;4.00;2.33;;;;;11.64;100.00;100530.19;5017592;28;48660;-75
2023/04/24 02:34:45;;;;;;;;;2.00;2.00;;;;;11.67;100.00;100540.78;5016582;28;56562;-74
2023/04/24 02:37:11;;;;;;;;;1.67;1.67;;;;;11.67;100.00;100543.41;4999791;28;47250;-74
2023/04/24 02:39:36;;;;;;;;;2.00;2.00;;;;;11.63;100.00;100539.88;5033555;28;45361;-74
2023/04/24 02:42:02;;;;;;;;;1.00;1.00;;;;;11.61;100.00;100536.34;5031538;28;48084;-75
2023/04/24 02:44:27;;;;;;;;;1.67;1.00;;;;;11.61;100.00;100544.28;5015471;28;48971;-74
2023/04/24 02:46:52;;;;;;;;;3.67;1.00;;;;;11.61;100.00;100541.66;5034720;28;49219;-74
2023/04/24 02:49:18;;;;;;;;;5.00;1.67;;;;;11.63;100.00;100539.00;5016830;28;51405;-74
2023/04/24 02:51:43;;;;;;;;;2.33;2.33;;;;;11.67;100.00;100540.78;5035059;28;46543;-74
2023/04/24 02:54:09;;;;;;;;;1.75;1.75;;;;;11.68;100.00;100547.81;5013802;28;45796;-74
2023/04/24 02:56:35;;;;;;;;;2.00;2.00;;;;;11.69;100.00;100552.22;5035755;28;45288;-74
2023/04/24 02:59:00;;;;;;;;;2.00;2.00;;;;;11.68;100.00;100553.13;5035052;28;45260;-74
2023/04/24 03:01:26;;;;;;;;;2.00;2.00;;;;;11.69;100.00;100555.75;5016929;28;52849;-75
2023/04/24 03:03:51;;;;;;;;;2.00;2.00;;;;;11.67;100.00;100552.22;5034495;28;45321;-74
2023/04/24 03:06:16;;;;;;;;;2.00;1.00;;;;;11.70;100.00;100549.56;5035253;28;45638;-74
2023/04/24 03:08:42;;;;;;;;;2.67;1.33;;;;;11.73;100.00;100549.59;5034421;28;51412;-74
2023/04/24 03:11:07;;;;;;;;;3.00;2.67;;;;;11.68;100.00;100550.47;5034525;28;45490;-74
2023/04/24 03:13:32;;;;;;;;;2.00;2.00;;;;;11.71;100.00;100566.31;5015992;28;45385;-74
2023/04/24 03:15:58;;;;;;;;;5.00;2.00;;;;;11.73;100.00;100564.59;5035227;28;45483;-74
2023/04/24 03:18:23;;;;;;;;;2.00;2.00;;;;;11.71;100.00;100568.97;5034696;28;52660;-74
2023/04/24 03:20:49;;;;;;;;;4.00;1.00;;;;;11.66;100.00;100570.72;5016428;28;59267;-75
2023/04/24 03:23:15;;;;;;;;;2.00;2.00;;;;;11.65;100.00;100577.78;5034257;28;45470;-74
2023/04/24 03:25:42;;;;;;;;;2.00;2.00;;;;;11.61;100.00;100573.38;5037702;28;45274;-74
2023/04/24 03:28:08;;;;;;;;;1.00;1.00;;;;;11.61;100.00;100567.19;5038055;28;45637;-74
2023/04/24 03:30:33;;;;;;;;;10.00;1.67;;;;;11.58;100.00;100561.91;5017166;28;46178;-74
2023/04/24 03:32:58;;;;;;;;;2.00;2.00;;;;;11.54;100.00;100564.53;5038141;28;45308;-73
2023/04/24 03:35:24;;;;;;;;;2.33;1.67;;;;;11.54;100.00;100561.88;5038061;28;45439;-75
2023/04/24 03:37:49;;;;;;;;;5.00;2.00;;;;;11.52;100.00;100576.00;5021164;28;45686;-74
2023/04/24 03:40:15;;;;;;;;;3.33;2.00;;;;;11.54;100.00;100569.81;5036695;28;46019;-74
2023/04/24 03:42:40;;;;;;;;;1.00;1.00;;;;;11.58;100.00;100576.00;5019227;28;45555;-74
2023/04/24 03:45:06;;;;;;;;;2.00;2.00;;;;;11.61;100.00;100578.66;5037831;28;45484;-74
2023/04/24 03:47:31;;;;;;;;;1.67;1.00;;;;;11.59;100.00;100572.47;5037875;28;45538;-74
2023/04/24 03:49:57;;;;;;;;;2.00;2.00;;;;;11.60;100.00;100578.66;5037226;28;47023;-74
2023/04/24 03:52:22;;;;;;;;;2.67;2.67;;;;;11.59;100.00;100585.69;5037660;28;45472;-73
2023/04/24 03:54:48;;;;;;;;;2.00;2.00;;;;;11.58;100.00;100589.22;5020101;28;45919;-74
2023/04/24 03:57:13;;;;;;;;;1.00;1.00;;;;;11.55;100.00;100579.50;5036120;28;45471;-74
2023/04/24 03:59:38;;;;;;;;;4.33;2.00;;;;;11.52;100.00;100581.28;5037170;28;48776;-73
2023/04/24 04:02:04;;;;;;;;;2.00;2.00;;;;;11.51;100.00;100590.09;5018979;28;56340;-74
2023/04/24 04:04:29;;;;;;;;;2.00;2.00;;;;;11.45;100.00;100592.69;5037963;28;45491;-73
2023/04/24 04:06:55;;;;;;;;;3.67;2.00;;;;;11.43;100.00;100600.63;5037883;28;45513;-74
2023/04/24 04:09:20;;;;;;;;;2.00;2.00;;;;;11.42;100.00;100603.28;5019079;28;46748;-73
2023/04/24 04:11:46;;;;;;;;;3.00;2.00;;;;;11.41;100.00;100601.50;5036026;28;45753;-74
2023/04/24 04:14:11;;;;;;;;;3.00;3.00;;;;;11.39;100.00;100601.47;5035424;28;45689;-74
2023/04/24 04:16:37;;;;;;;;;2.25;2.00;;;;;11.38;100.00;100602.38;5036725;28;45522;-74
2023/04/24 04:19:03;;;;;;;;;2.25;2.25;;;;;11.40;100.00;100613.84;5018352;28;48153;-74
2023/04/24 04:21:28;;;;;;;;;2.00;2.00;;;;;11.40;100.00;100608.56;5017410;28;45448;-74
2023/04/24 04:23:54;;;;;;;;;4.00;3.00;;;;;11.39;100.00;100604.13;5018619;28;45487;-74
2023/04/24 04:26:20;;;;;;;;;1.67;1.67;;;;;11.39;100.00;100612.06;5036689;28;45613;-76
2023/04/24 04:28:47;;;;;;;;;3.00;2.00;;;;;11.40;100.00;100620.88;5011899;28;45811;-74
2023/04/24 04:31:13;;;;;;;;;2.00;2.00;;;;;11.39;100.00;100627.03;5033336;28;45486;-74
2023/04/24 04:33:39;;;;;;;;;2.00;2.00;;;;;11.36;100.00;100630.56;5014535;28;45522;-74
2023/04/24 04:36:04;;;;;;;;;2.33;2.00;;;;;11.32;100.00;100628.78;5014032;28;45357;-74
2023/04/24 04:38:30;;;;;;;;;2.00;2.00;;;;;11.37;100.00;100631.44;5004876;28;46767;-74
2023/04/24 04:40:58;;;;;;;;;2.33;2.00;;;;;11.32;100.00;100634.06;5015632;28;46034;-74
2023/04/24 04:43:24;;;;;;;;;2.00;2.00;;;;;11.35;100.00;100635.84;5016703;28;45529;-74
2023/04/24 04:45:51;;;;;;;;;3.00;1.67;;;;;11.36;100.00;100635.84;4999354;28;45531;-75
2023/04/24 04:48:17;;;;;;;;;4.67;2.00;;;;;11.36;100.00;100634.97;5016992;28;46532;-74
2023/04/24 04:50:42;;;;;;;;;4.25;3.00;;;;;11.35;100.00;100644.66;5016251;28;45602;-74
2023/04/24 04:53:08;;;;;;;;;3.00;2.00;;;;;11.33;100.00;100641.13;4998552;28;45524;-74
2023/04/24 04:55:33;;;;;;;;;3.00;1.00;;;;;11.34;100.00;100648.16;5016743;28;45888;-74
2023/04/24 04:58:00;;;;;;;;;4.67;3.00;;;;;11.35;100.00;100657.88;4981534;28;54424;-74
2023/04/24 05:00:25;;;;;;;;;4.00;2.00;;;;;11.37;100.00;100657.88;5016262;28;45555;-75
2023/04/24 05:02:51;;;;;;;;;5.25;2.00;;;;;11.38;100.00;100655.25;4997872;28;45480;-74
2023/04/24 05:05:17;;;;;;;;;3.67;3.00;;;;;11.39;100.00;100661.41;5016473;28;45348;-74
2023/04/24 05:07:43;;;;;;;;;4.00;2.00;;;;;11.40;100.00;100669.38;4982192;28;48141;-74
2023/04/24 05:10:09;;;;;;;;;5.00;3.00;;;;;11.37;100.00;100690.47;5015915;28;45567;-73
2023/04/24 05:12:34;;;;;;;;;2.33;1.00;;;;;11.32;100.00;100681.66;5017425;28;45381;-73
2023/04/24 05:15:00;;;;;;;;;7.00;4.00;;;;;11.33;100.00;100691.34;5017886;28;45651;-74
2023/04/24 05:17:25;;;;;;;;;4.00;3.00;;;;;11.33;100.00;100690.47;5016235;28;46401;-74
2023/04/24 05:19:51;;;;;;;;;3.25;3.25;;;;;11.38;100.00;100694.88;5015518;28;45484;-74
2023/04/24 05:22:18;;;;;;;;;5.00;4.00;;;;;11.40;100.00;100694.88;5015966;28;45500;-74
2023/04/24 05:24:43;;;;;;;;;6.50;4.25;;;;;11.44;100.00;100696.69;5015722;28;45495;-73
2023/04/24 05:27:09;;;;;;;;;3.50;3.50;;;;;11.45;100.00;100707.28;5015554;28;46635;-74
2023/04/24 05:29:35;;;;;;;;;3.75;3.25;;;;;11.49;100.00;100706.41;4998585;28;45294;-73
2023/04/24 05:32:00;;;;;;;;;3.33;3.33;;;;;11.48;100.00;100709.94;4996405;28;45564;-74
2023/04/24 05:34:26;;;;;;;;;4.75;3.75;;;;;11.55;100.00;100722.28;5005822;28;45412;-73
2023/04/24 05:36:52;;;;;;;;;4.00;3.00;;;;;11.59;100.00;100717.03;5034501;28;45720;-73
2023/04/24 05:39:17;;;;;;;;;3.50;3.00;;;;;11.64;100.00;100728.53;5012343;28;45583;-72
2023/04/24 05:41:43;;;;;;;;;3.25;2.75;;;;;11.65;100.00;100725.00;5034037;28;45427;-74
2023/04/24 05:44:08;;;;;;;;;4.50;3.75;;;;;11.68;100.00;100728.56;5017817;28;45374;-74
2023/04/24 05:46:34;;;;;;;;;4.33;3.00;;;;;11.69;100.00;100730.31;5034374;28;45775;-73
2023/04/24 05:48:59;;;;;;;;;2.00;2.00;;;;;11.77;100.00;100732.97;5030087;28;49708;-73
2023/04/24 05:51:25;;;;;;;;;2.00;2.00;;;;;11.77;100.00;100738.25;5032502;28;45511;-74
2023/04/24 05:53:51;;;;;;;;;6.25;2.50;;;;;11.79;100.00;100742.72;5031468;28;45458;-73
2023/04/24 05:56:16;;;;;;;;;4.33;3.67;;;;;11.80;100.00;100751.53;5017817;28;46541;-73
2023/04/24 05:58:42;;;;;;;;;4.00;4.00;;;;;11.80;100.00;100749.75;5017830;28;62540;-73
2023/04/24 06:01:07;;;;;;;;;3.00;3.00;;;;;11.82;100.00;100755.09;5035325;28;59596;-74
2023/04/24 06:03:32;;;;;;;;;4.00;3.67;;;;;11.86;100.00;100745.41;5033397;28;45341;-73
2023/04/24 06:05:58;;;;;;;;;6.00;5.00;;;;;11.90;100.00;100771.00;5015773;28;59661;-74
2023/04/24 06:08:23;;;;;;;;;7.00;5.00;;;;;11.95;100.00;100777.22;5016999;28;60958;-74
2023/04/24 06:10:49;;;;;;;;;4.00;4.00;;;;;11.97;100.00;100778.09;5036467;28;45277;-73
2023/04/24 06:13:14;;;;;;;;;5.00;5.00;;;;;11.99;100.00;100786.94;5035075;28;45467;-73
2023/04/24 06:15:40;;;;;;;;;4.00;4.00;;;;;12.01;100.00;100782.53;5017993;28;46701;-72
2023/04/24 06:18:05;;;;;;;;;9.67;4.67;;;;;12.02;100.00;100782.53;5014468;28;45526;-73
2023/04/24 06:20:31;;;;;;;;;8.00;4.67;;;;;11.99;100.00;100786.94;5034256;28;45313;-74
2023/04/24 06:22:56;;;;;;;;;5.33;4.00;;;;;12.00;100.00;100786.94;5016961;28;58959;-73
2023/04/24 06:25:22;;;;;;;;;4.50;4.50;;;;;12.03;100.00;100794.88;5017022;28;46418;-74
2023/04/24 06:27:47;;;;;;;;;6.00;6.00;;;;;12.05;100.00;100797.53;5019862;28;45483;-73
2023/04/24 06:30:12;;;;;;;;;8.67;5.00;;;;;12.02;100.00;100808.97;5018732;28;45527;-73
2023/04/24 06:32:38;;;;;;;;;9.33;7.00;;;;;11.94;100.00;100800.13;5018067;28;45431;-74
2023/04/24 06:35:04;;;;;;;;;4.67;4.67;;;;;11.89;100.00;100796.59;5022622;28;46416;-73
2023/04/24 06:37:29;;;;;;;;;7.00;7.00;;;;;11.90;100.00;100800.13;5015855;28;45545;-74
2023/04/24 06:39:54;;;;;;;;;7.25;6.75;;;;;11.97;100.00;100813.38;4996700;28;45500;-73
2023/04/24 06:42:20;;;;;;;;;9.50;8.25;;;;;11.98;100.00;100809.84;5015202;28;45320;-72
2023/04/24 06:44:46;;;;;;;;;7.00;7.00;;;;;12.00;100.00;100818.69;5015951;28;45954;-72
2023/04/24 06:47:13;;;;;;;;;10.33;4.33;;;;;12.02;100.00;100811.63;5015406;28;45448;-73
2023/04/24 06:49:39;;;;;;;;;10.75;7.75;;;;;12.04;100.00;100827.53;5015019;28;45324;-73
2023/04/24 06:52:05;;;;;;;;;9.75;8.25;;;;;12.05;100.00;100830.19;4980838;28;45571;-73
2023/04/24 06:54:30;;;;;;;;;9.00;7.00;;;;;12.14;100.00;100829.31;4980632;28;47693;-74
2023/04/24 06:56:57;;;;;;;;;7.75;7.75;;;;;12.23;100.00;100817.91;4997413;28;45350;-73
2023/04/24 06:59:23;;;;;;;;;7.25;5.25;;;;;12.31;100.00;100821.47;4998552;28;45501;-73
2023/04/24 07:01:48;;;;;;;;;9.50;5.50;;;;;12.44;100.00;100823.28;5017576;28;45461;-73
2023/04/24 07:04:14;;;;;;;;;7.25;7.25;;;;;12.51;100.00;100821.53;5017903;28;54020;-73
2023/04/24 07:06:39;;;;;;;;;8.33;4.67;;;;;12.58;100.00;100823.31;5018468;28;45454;-73
2023/04/24 07:09:05;;;;;;;;;12.50;9.75;;;;;12.64;100.00;100817.16;5000904;28;45430;-73
2023/04/24 07:11:31;;;;;;;;;9.00;6.00;;;;;12.70;100.00;100830.41;5001342;28;45667;-73
2023/04/24 07:13:56;;;;;;;;;12.50;9.25;;;;;12.74;100.00;100821.59;5018093;28;46768;-73
2023/04/24 07:16:22;;;;;;;;;8.33;7.33;;;;;12.80;100.00;100832.19;5017636;28;45292;-73
2023/04/24 07:18:47;;;;;;;;;9.00;6.00;;;;;12.83;100.00;100830.41;5018704;28;45216;-73
2023/04/24 07:21:12;;;;;;;;;11.67;8.33;;;;;12.84;100.00;100826.91;5018996;28;45332;-72
2023/04/24 07:23:38;;;;;;;;;9.00;9.00;;;;;12.88;100.00;100838.38;5017799;28;58186;-73
2023/04/24 07:26:03;;;;;;;;;13.25;9.00;;;;;12.87;100.00;100830.44;5017969;28;45368;-73
2023/04/24 07:28:31;;;;;;;;;13.75;10.00;;;;;12.90;100.00;100831.34;5018246;28;45331;-73
2023/04/24 07:30:57;;;;;;;;;9.00;9.00;;;;;12.95;100.00;100836.66;5000893;28;45467;-73
2023/04/24 07:33:22;;;;;;;;;9.50;8.75;;;;;12.98;100.00;100833.97;5000742;28;48194;-73
2023/04/24 07:35:48;;;;;;;;;15.33;10.67;;;;;13.04;100.00;100837.53;5019085;28;45447;-74
2023/04/24 07:38:13;;;;;;;;;10.00;9.00;;;;;13.11;100.00;100841.09;5036895;28;45313;-73
2023/04/24 07:40:39;;;;;;;;;9.25;7.00;;;;;13.20;100.00;100843.72;5019241;28;45504;-73
2023/04/24 07:43:04;;;;;;;;;10.00;7.33;;;;;13.29;100.00;100846.41;5037272;28;45356;-73
2023/04/24 07:45:31;;;;;;;;;11.33;7.33;;;;;13.34;100.00;100849.94;5036463;28;45261;-74
2023/04/24 07:47:56;;;;;;;;;12.00;6.67;;;;;13.34;100.00;100859.69;5038347;28;45476;-73
2023/04/24 07:50:21;;;;;;;;;9.00;9.00;;;;;13.30;100.00;100848.19;5038362;28;45261;-72
2023/04/24 07:52:47;;;;;;;;;9.67;9.67;;;;;13.29;100.00;100853.50;5037961;28;45296;-74
2023/04/24 07:55:12;;;;;;;;;9.67;9.00;;;;;13.27;100.00;100856.16;5037935;28;45349;-73
2023/04/24 07:57:38;;;;;;;;;8.00;5.00;;;;;13.19;100.00;100856.97;5037977;28;45219;-73
2023/04/24 08:00:05;;;;;;;;;10.00;8.33;;;;;13.11;100.00;100854.34;5020323;28;45555;-73
2023/04/24 08:02:31;;;;;;;;;10.33;9.33;;;;;13.03;100.00;100849.00;5037571;28;45694;-73
2023/04/24 08:04:56;;;;;;;;;12.00;11.00;;;;;13.05;100.00;100867.59;5037994;28;45344;-73
2023/04/24 08:07:22;;;;;;;;;9.67;9.67;;;;;13.05;100.00;100867.59;5037768;28;45834;-73
2023/04/24 08:09:48;;;;;;;;;7.00;6.00;;;;;13.05;100.00;100865.81;5037842;28;45404;-73
2023/04/24 08:12:13;;;;;;;;;9.00;9.00;;;;;13.13;100.00;100865.81;5033256;28;50587;-73
2023/04/24 08:14:39;;;;;;;;;13.00;11.00;;;;;13.24;100.00;100871.16;5019766;28;45353;-73
2023/04/24 08:17:04;;;;;;;;;13.00;9.50;;;;;13.38;100.00;100874.72;5037733;28;45467;-73
2023/04/24 08:19:30;;;;;;;;;10.67;7.67;;;;;13.50;100.00;100880.00;5037284;28;46202;-73
2023/04/24 08:21:55;;;;;;;;;13.00;11.33;;;;;13.62;100.00;100874.69;5019550;28;54508;-73
2023/04/24 08:24:20;;;;;;;;;14.33;9.67;;;;;13.76;100.00;100874.69;5019976;28;55426;-73
2023/04/24 08:26:46;;;;;;;;;13.00;8.33;;;;;13.85;100.00;100869.38;5018244;28;45455;-73
2023/04/24 08:29:11;;;;;;;;;12.50;12.50;;;;;13.95;100.00;100866.69;5037192;28;45517;-73
2023/04/24 08:31:37;;;;;;;;;13.33;10.33;;;;;14.01;100.00;100864.91;5019386;28;46134;-73
2023/04/24 08:34:02;;;;;;;;;10.67;10.00;;;;;14.03;100.00;100864.91;5034663;28;45481;-73
2023/04/24 08:36:27;;;;;;;;;11.67;9.67;;;;;14.01;100.00;100864.00;5019378;28;45347;-73
2023/04/24 08:38:53;;;;;;;;;11.67;10.67;;;;;14.02;100.00;100868.44;5037401;28;45923;-73
2023/04/24 08:41:19;;;;;;;;;15.33;10.67;;;;;14.02;100.00;100871.97;5036557;28;46010;-73
2023/04/24 08:43:46;;;;;;;;;12.00;12.00;;;;;14.02;100.00;100879.94;5036126;28;45460;-74
2023/04/24 08:46:12;;;;;;;;;13.67;12.00;;;;;14.06;100.00;100880.81;5033643;28;45380;-73
2023/04/24 08:48:39;;;;;;;;;14.33;12.00;;;;;14.08;100.00;100889.66;5033860;28;45424;-73
2023/04/24 08:51:07;;;;;;;;;16.50;12.75;;;;;14.07;100.00;100883.47;5036791;28;46635;-73
2023/04/24 08:53:32;;;;;;;;;15.33;13.00;;;;;14.10;100.00;100879.91;5035167;28;45704;-73
2023/04/24 08:55:58;;;;;;;;;19.25;14.75;;;;;14.11;100.00;100885.25;5036298;28;47579;-73
2023/04/24 08:58:27;;;;;;;;;17.75;13.75;;;;;14.09;100.00;100881.69;5036677;28;45573;-73
2023/04/24 09:00:55;;;;;;;;;15.67;13.33;;;;;14.09;100.00;100879.03;5036798;28;46738;-74
2023/04/24 09:03:21;;;;;;;;;16.25;13.50;;;;;14.13;100.00;100879.91;5036011;28;45520;-73
2023/04/24 09:05:49;;;;;;;;;14.00;12.00;;;;;14.13;100.00;100888.78;5034612;28;45455;-73
2023/04/24 09:08:16;;;;;;;;;16.00;13.00;;;;;14.11;100.00;100885.25;5017872;28;45240;-73
2023/04/24 09:10:42;;;;;;;;;16.00;14.00;;;;;14.10;100.00;100880.78;5035854;28;45766;-73
2023/04/24 09:13:09;;;;;;;;;15.33;14.33;;;;;14.11;100.00;100887.00;5035586;28;46010;-73
2023/04/24 09:15:36;;;;;;;;;17.75;16.25;;;;;14.11;100.00;100887.00;5036452;28;45427;-73
2023/04/24 09:18:01;;;;;;;;;15.00;11.33;;;;;14.12;100.00;100881.69;5035664;28;45471;-73
2023/04/24 09:20:27;;;;;;;;;13.33;12.00;;;;;14.16;100.00;100883.44;5036570;28;45755;-73
2023/04/24 09:22:58;;;;;;;;;8.67;6.33;;;;;14.27;100.00;100890.47;5035653;28;45273;-73
2023/04/24 09:25:35;;;;;;;;;14.67;11.67;;;;;14.41;100.00;100901.97;5036368;28;45264;-73
2023/04/24 09:28:02;;;;;;;;;12.00;12.00;;;;;14.54;100.00;100905.47;5018762;28;45340;-73
2023/04/24 09:30:28;;;;;;;;;17.00;13.67;;;;;14.64;100.00;100897.44;5018559;28;46398;-73
2023/04/24 09:33:23;;;;;;;;;14.00;12.00;;;;;14.72;100.00;100901.88;5036132;28;45221;-73
2023/04/24 09:35:50;;;;;;;;;12.67;12.67;;;;;14.70;100.00;100900.97;5018468;28;45159;-73
2023/04/24 09:38:16;;;;;;;;;13.00;12.67;;;;;14.72;100.00;100907.19;5017937;28;45559;-73
2023/04/24 09:40:41;;;;;;;;;13.67;10.00;;;;;14.79;100.00;100906.25;5018071;28;46541;-73
2023/04/24 09:43:10;;;;;;;;;13.33;12.33;;;;;14.84;100.00;100910.66;5014495;28;45436;-73
2023/04/24 09:45:37;;;;;;;;;12.67;10.33;;;;;14.94;100.00;100912.38;5036432;28;45428;-74
2023/04/24 09:48:03;;;;;;;;;13.67;13.67;;;;;15.04;100.00;100907.88;5035823;28;45690;-74
2023/04/24 09:50:31;;;;;;;;;14.00;13.67;;;;;15.10;100.00;100912.28;5036181;28;45872;-73
2023/04/24 09:52:59;;;;;;;;;16.00;11.33;;;;;15.15;100.00;100915.81;5036343;28;45297;-73
2023/04/24 09:55:25;;;;;;;;;15.67;14.67;;;;;15.21;100.00;100913.09;5017500;28;45427;-73
2023/04/24 09:57:52;;;;;;;;;10.00;8.33;;;;;15.22;100.00;100922.84;5018452;28;45393;-74
2023/04/24 10:00:25;;;;;;;;;10.67;10.67;;;;;15.27;100.00;100915.72;5017537;28;46481;-73
2023/04/24 10:03:04;;;;;;;;;16.33;14.00;;;;;15.34;100.00;100905.91;5036066;28;45522;-73
2023/04/24 10:05:32;;;;;;;;;10.33;10.33;;;;;15.47;100.00;100904.94;5035693;28;45510;-73
2023/04/24 10:08:09;;;;;;;;;14.00;13.00;;;;;15.68;100.00;100918.09;5036212;28;45431;-73
2023/04/24 10:10:38;;;;;;;;;19.00;16.00;;;;;15.82;100.00;100901.09;5035476;28;46521;-74
2023/04/24 10:13:04;;;;;;;;;12.00;12.00;;;;;15.90;100.00;100897.47;5035656;28;45542;-73
2023/04/24 10:15:30;;;;;;;;;15.67;11.00;;;;;15.97;100.00;100904.50;5035828;28;46180;-73
2023/04/24 10:17:58;;;;;;;;;12.67;9.00;;;;;15.95;100.00;100905.41;5036188;28;45559;-73
2023/04/24 10:20:26;;;;;;;;;13.33;13.00;;;;;15.92;100.00;100916.09;5032033;28;47817;-73
2023/04/24 10:22:53;;;;;;;;;16.00;12.67;;;;;15.95;100.00;100919.63;5035291;28;45578;-73
2023/04/24 10:25:20;;;;;;;;;13.67;11.00;;;;;15.91;100.00;100909.00;5035422;28;45435;-73
2023/04/24 10:27:46;;;;;;;;;12.33;12.00;;;;;15.81;100.00;100916.19;5035262;28;45586;-74
2023/04/24 10:30:12;;;;;;;;;12.67;11.33;;;;;15.78;100.00;100928.66;5035499;28;45852;-74
2023/04/24 10:32:38;;;;;;;;;9.00;9.00;;;;;15.77;100.00;100914.47;5035557;28;45365;-73
2023/04/24 10:35:04;;;;;;;;;13.67;12.33;;;;;15.82;100.00;100919.72;5006864;28;45552;-73
2023/04/24 10:37:36;;;;;;;;;10.00;10.00;;;;;15.90;100.00;100917.91;4998801;28;45239;-73
2023/04/24 10:40:01;;;;;;;;;11.33;10.33;;;;;15.99;100.00;100917.81;5018731;28;46694;-73
2023/04/24 10:42:28;;;;;;;;;14.67;12.00;;;;;16.04;100.00;100916.00;5019165;28;45376;-73
2023/04/24 10:44:54;;;;;;;;;11.33;11.00;;;;;16.07;100.00;100920.38;5019222;28;45381;-74
2023/04/24 10:47:19;;;;;;;;;9.00;8.00;;;;;16.13;100.00;100920.31;5001579;28;45419;-73
2023/04/24 10:49:45;;;;;;;;;11.00;10.00;;;;;16.24;100.00;100915.75;5018798;28;47761;-74
2023/04/24 10:52:11;;;;;;;;;12.00;10.33;;;;;16.33;100.00;100917.44;5016853;28;45481;-73
2023/04/24 10:54:47;;;;;;;;;13.00;9.67;;;;;16.37;100.00;100909.41;5018868;28;45219;-74
2023/04/24 10:57:22;;;;;;;;;12.67;8.33;;;;;16.40;100.00;100922.69;5018076;28;45663;-73
2023/04/24 10:59:49;;;;;;;;;12.00;10.33;;;;;16.44;100.00;100907.53;5018841;28;47851;-73
2023/04/24 11:02:15;;;;;;;;;9.67;9.67;;;;;16.48;100.00;100906.63;4998595;28;45508;-74
2023/04/24 11:04:42;;;;;;;;;11.00;10.00;;;;;16.48;100.00;100902.16;5018606;28;45431;-73
2023/04/24 11:07:09;;;;;;;;;10.33;10.33;;;;;16.49;100.00;100901.25;5018872;28;45559;-73